This is the latest recevied weather packets stored in our database for station/object 9W2CEW-1. If no packets are shown the sender has not sent any weather packets the latest 10 day(s).
| Time | Temp. | Humidity | Pressure | Rain* | Wind** | Luminosity | Snow |
|---|---|---|---|---|---|---|---|
| 1787710106 | 37.78° C | 43% | 1008.1 hPa | - | - | - | - |
| 1787709209 | 37.22° C | 45% | 1008 hPa | - | - | - | - |
| 1787707405 | 32.78° C | 56% | 1008 hPa | - | - | - | - |
| 1787706508 | 33.89° C | 55% | 1008.1 hPa | - | - | - | - |
| 1787705604 | 32.78° C | 58% | 1008 hPa | - | - | - | - |
| 1787704711 | 30.56° C | 68% | 1008 hPa | - | - | - | - |
| 1787703805 | 30° C | 70% | 1007.5 hPa | - | - | - | - |
| 1787702904 | 29.44° C | 74% | 1007.1 hPa | - | - | - | - |
| 1787702004 | 29.44° C | 75% | 1006.8 hPa | - | - | - | - |
| 1787701692 | 38.33° C | 41% | 1006.1 hPa | - | - | - | - |
| 1787701104 | 29.44° C | 73% | 1006.6 hPa | - | - | - | - |
| 1787700204 | 30.56° C | 67% | 1006 hPa | - | - | - | - |
| 1787699310 | 32.22° C | 62% | 1006.1 hPa | - | - | - | - |
| 1787698410 | 30.56° C | 67% | 1005.9 hPa | - | - | - | - |
| 1787697503 | 33.89° C | 55% | 1005.5 hPa | - | - | - | - |
| 1787696802 | 38.89° C | 41% | 1005.6 hPa | - | - | - | - |
| 1787696603 | 36.67° C | 49% | 1005.3 hPa | - | - | - | - |
| 1787695703 | 36.67° C | 47% | 1005 hPa | - | - | - | - |
| 1787694803 | 37.22° C | 47% | 1004.7 hPa | - | - | - | - |
| 1787693903 | 37.78° C | 44% | 1004.6 hPa | - | - | - | - |
| 1787693877 | 36.11° C | 45% | 1005.3 hPa | - | - | - | - |
| 1787693003 | 38.33° C | 44% | 1004.7 hPa | - | - | - | - |
| 1787692103 | 36.11° C | 48% | 1004.9 hPa | - | - | - | - |
| 1787691968 | 37.22° C | 44% | 1004.9 hPa | - | - | - | - |
| 1787691203 | 37.78° C | 46% | 1004.8 hPa | - | - | - | - |
* Rain since midnight (hover to see other rain measurements)
** Current wind speed in m/s (hover to see current wind gust speed)